createdAt,value
2017-11-06T00:00:22.374Z,20.07
2017-11-06T00:02:50.553Z,21.00
2017-11-06T00:05:18.742Z,17.97
2017-11-06T00:07:46.153Z,17.40
2017-11-06T00:10:13.604Z,24.77
2017-11-06T00:12:41.013Z,17.53
2017-11-06T00:15:08.421Z,17.13
2017-11-06T00:17:35.847Z,20.13
2017-11-06T00:20:03.261Z,21.30
2017-11-06T00:22:31.456Z,21.87
2017-11-06T00:24:58.855Z,21.83
2017-11-06T00:27:26.286Z,18.80
2017-11-06T00:29:53.694Z,20.30
2017-11-06T00:32:21.885Z,19.97
2017-11-06T00:34:50.069Z,17.80
2017-11-06T00:37:17.482Z,16.70
2017-11-06T00:39:44.889Z,21.20
2017-11-06T00:42:12.307Z,18.93
2017-11-06T00:44:39.722Z,18.00
2017-11-06T00:47:07.138Z,18.40
2017-11-06T00:49:35.317Z,17.70
2017-11-06T00:52:03.414Z,20.03
2017-11-06T00:54:30.817Z,17.43
2017-11-06T00:56:58.230Z,17.87
2017-11-06T00:59:25.650Z,18.07
2017-11-06T01:01:53.829Z,18.80
2017-11-06T01:04:22.011Z,19.50
2017-11-06T01:06:49.422Z,19.97
2017-11-06T01:09:16.841Z,21.53
2017-11-06T01:11:44.258Z,20.80
2017-11-06T01:14:12.438Z,17.93
2017-11-06T01:16:40.609Z,20.53
2017-11-06T01:19:08.808Z,18.20
2017-11-06T01:21:36.212Z,21.07
2017-11-06T01:24:03.627Z,17.80
2017-11-06T01:26:31.032Z,17.23
2017-11-06T01:28:58.452Z,26.00
2017-11-06T01:31:25.868Z,15.13
2017-11-06T01:33:54.050Z,14.90
2017-11-06T01:36:21.470Z,19.00
2017-11-06T01:38:48.887Z,19.60
2017-11-06T01:41:16.307Z,19.57
2017-11-06T01:43:44.478Z,24.03
2017-11-06T01:46:12.672Z,19.60
2017-11-06T01:48:40.082Z,22.67
2017-11-06T01:51:07.502Z,19.00
2017-11-06T01:53:34.930Z,18.47
2017-11-06T01:56:05.254Z,18.80
2017-11-06T01:58:32.938Z,19.70
2017-11-06T02:01:00.362Z,26.40
2017-11-06T02:03:28.554Z,23.70
2017-11-06T02:05:55.966Z,25.37
2017-11-06T02:08:23.391Z,23.60
2017-11-06T02:10:50.793Z,22.13
2017-11-06T02:13:18.979Z,23.97
2017-11-06T02:15:47.162Z,38.47
2017-11-06T02:18:15.353Z,39.80
2017-11-06T02:20:42.757Z,18.20
2017-11-06T02:23:10.185Z,18.80
2017-11-06T02:25:37.595Z,20.07
2017-11-06T02:28:05.782Z,18.93
2017-11-06T02:30:33.194Z,18.57
2017-11-06T02:33:00.622Z,21.07
2017-11-06T02:35:28.023Z,16.63
2017-11-06T02:37:55.450Z,22.83
2017-11-06T02:40:22.866Z,15.37
2017-11-06T02:42:50.286Z,20.13
2017-11-06T02:45:17.696Z,18.43
2017-11-06T02:47:45.105Z,20.27
2017-11-06T02:50:12.930Z,17.03
2017-11-06T02:52:46.082Z,21.43
2017-11-06T02:55:14.254Z,17.43
2017-11-06T02:57:42.430Z,20.20
2017-11-06T03:00:09.847Z,22.37
2017-11-06T03:02:38.274Z,21.20
2017-11-06T03:05:05.682Z,17.87
2017-11-06T03:07:33.106Z,17.73
2017-11-06T03:10:00.526Z,15.37
2017-11-06T03:12:29.614Z,18.07
2017-11-06T03:14:57.790Z,19.40
2017-11-06T03:17:25.971Z,20.70
2017-11-06T03:19:54.154Z,18.20
2017-11-06T03:22:21.563Z,17.07
2017-11-06T03:24:48.985Z,18.00
2017-11-06T03:27:16.394Z,16.57
2017-11-06T03:29:43.827Z,15.30
2017-11-06T03:32:11.238Z,14.60
2017-11-06T03:34:38.650Z,18.03
2017-11-06T03:37:06.064Z,19.20
2017-11-06T03:39:33.524Z,17.97
2017-11-06T03:42:00.932Z,14.70
2017-11-06T03:44:28.332Z,14.90
2017-11-06T03:46:56.001Z,14.13
2017-11-06T03:49:23.402Z,19.83
2017-11-06T03:51:50.810Z,17.00
2017-11-06T03:54:18.585Z,15.60
2017-11-06T03:56:46.015Z,18.80
2017-11-06T03:59:13.422Z,18.50
2017-11-06T04:01:40.842Z,17.17
2017-11-06T04:04:08.254Z,22.67
2017-11-06T04:06:37.255Z,25.13
2017-11-06T04:09:05.434Z,23.67
2017-11-06T04:11:34.379Z,24.30
2017-11-06T04:14:01.790Z,26.03
2017-11-06T04:16:29.201Z,21.33
2017-11-06T04:18:56.620Z,25.17
2017-11-06T04:21:24.042Z,19.40
2017-11-06T04:23:52.230Z,22.93
2017-11-06T04:26:19.645Z,22.00
2017-11-06T04:28:47.066Z,20.67
2017-11-06T04:31:14.477Z,23.67
2017-11-06T04:33:44.590Z,24.10
2017-11-06T04:36:12.020Z,18.53
2017-11-06T04:38:39.425Z,20.80
2017-11-06T04:41:06.846Z,21.90
2017-11-06T04:43:34.257Z,20.53
2017-11-06T04:46:01.670Z,23.30
2017-11-06T04:48:29.081Z,25.67
2017-11-06T04:50:56.493Z,27.93
2017-11-06T04:53:24.677Z,26.53
2017-11-06T04:55:52.854Z,22.70
2017-11-06T04:58:20.272Z,28.53
2017-11-06T05:00:47.706Z,20.10
2017-11-06T05:03:15.109Z,28.67
2017-11-06T05:05:43.290Z,25.47
2017-11-06T05:08:11.482Z,21.13
2017-11-06T05:10:38.894Z,25.77
2017-11-06T05:13:06.316Z,21.83
2017-11-06T05:15:33.726Z,29.50
2017-11-06T05:18:01.903Z,22.00
2017-11-06T05:20:30.096Z,18.40
2017-11-06T05:22:58.321Z,23.03
2017-11-06T05:25:25.745Z,22.63
2017-11-06T05:27:53.158Z,19.10
2017-11-06T05:30:21.351Z,22.73
2017-11-06T05:32:48.764Z,19.63
2017-11-06T05:35:16.185Z,20.63
2017-11-06T05:37:43.595Z,23.63
2017-11-06T05:40:11.783Z,24.73
2017-11-06T05:42:40.739Z,19.80
2017-11-06T05:45:08.159Z,22.63
2017-11-06T05:47:35.582Z,20.20
2017-11-06T05:50:03.766Z,19.73
2017-11-06T05:52:31.191Z,15.00
2017-11-06T05:54:58.606Z,18.30
2017-11-06T05:57:26.028Z,19.73
2017-11-06T05:59:54.194Z,22.50
2017-11-06T06:02:22.386Z,17.13
2017-11-06T06:04:49.804Z,17.50
2017-11-06T06:07:17.221Z,23.77
2017-11-06T06:09:44.639Z,21.17
2017-11-06T06:12:13.806Z,18.67
2017-11-06T06:14:41.226Z,15.53
2017-11-06T06:17:08.646Z,16.00
2017-11-06T06:19:36.824Z,23.30
2017-11-06T06:22:05.021Z,16.00
2017-11-06T06:24:32.427Z,18.63
2017-11-06T06:26:59.855Z,17.00
2017-11-06T06:29:28.042Z,16.50
2017-11-06T06:31:55.457Z,22.67
2017-11-06T06:34:22.870Z,18.60
2017-11-06T06:36:50.333Z,21.70
2017-11-06T06:39:17.752Z,18.83
2017-11-06T06:41:45.159Z,14.03
2017-11-06T06:44:13.333Z,17.13
2017-11-06T06:46:41.526Z,18.53
2017-11-06T06:49:09.702Z,19.30
2017-11-06T06:51:37.115Z,19.13
2017-11-06T06:54:04.538Z,24.07
2017-11-06T06:56:31.947Z,20.73
2017-11-06T06:59:00.138Z,21.50
2017-11-06T07:01:27.545Z,20.37
2017-11-06T07:03:54.978Z,18.80
2017-11-06T07:06:22.389Z,22.87
2017-11-06T07:08:49.813Z,15.80
2017-11-06T07:11:18.109Z,18.27
2017-11-06T07:13:45.534Z,18.70
2017-11-06T07:16:12.941Z,16.67
2017-11-06T07:18:41.137Z,15.47
2017-11-06T07:21:08.546Z,19.43
2017-11-06T07:23:35.960Z,13.03
2017-11-06T07:26:03.376Z,14.90
2017-11-06T07:28:30.776Z,20.13
2017-11-06T07:30:58.190Z,14.20
2017-11-06T07:33:26.371Z,18.57
2017-11-06T07:35:54.559Z,16.10
2017-11-06T07:38:21.962Z,12.43
2017-11-06T07:40:50.190Z,15.23
2017-11-06T07:43:17.609Z,17.37
2017-11-06T07:45:45.025Z,17.57
2017-11-06T07:48:12.433Z,14.67
2017-11-06T07:50:40.622Z,16.83
2017-11-06T07:53:08.803Z,18.63
2017-11-06T07:55:36.998Z,16.40
2017-11-06T07:58:04.416Z,18.33
2017-11-06T08:00:32.582Z,16.13
2017-11-06T08:03:01.009Z,15.93
2017-11-06T08:05:28.398Z,18.93
2017-11-06T08:07:55.822Z,18.33
2017-11-06T08:10:23.223Z,18.53
2017-11-06T08:12:50.642Z,19.30
2017-11-06T08:15:18.064Z,16.57
2017-11-06T08:17:45.500Z,11.90
2017-11-06T08:20:12.901Z,18.40
2017-11-06T08:22:40.313Z,14.27
2017-11-06T08:25:08.498Z,13.30
2017-11-06T08:27:36.687Z,12.20
2017-11-06T08:30:04.098Z,11.60
2017-11-06T08:32:31.519Z,11.47
2017-11-06T08:34:58.934Z,10.37
2017-11-06T08:37:27.118Z,8.80
2017-11-06T08:39:54.530Z,10.67
2017-11-06T08:42:21.965Z,11.20
2017-11-06T08:44:49.365Z,10.20
2017-11-06T08:47:16.782Z,11.30
2017-11-06T08:49:44.203Z,9.63
2017-11-06T08:52:11.639Z,51.70
2017-11-06T08:54:39.810Z,15.47
2017-11-06T08:57:07.991Z,7.77
2017-11-06T08:59:36.178Z,9.03
2017-11-06T09:02:04.358Z,8.60
2017-11-06T09:04:31.765Z,8.43
2017-11-06T09:06:59.181Z,12.13
2017-11-06T09:09:26.602Z,7.57
2017-11-06T09:11:54.782Z,8.80
2017-11-06T09:14:22.973Z,9.20
2017-11-06T09:16:50.387Z,8.83
2017-11-06T09:19:18.436Z,19.73
2017-11-06T09:21:45.835Z,10.57
2017-11-06T09:24:13.242Z,9.57
2017-11-06T09:26:40.651Z,8.80
2017-11-06T09:29:08.829Z,9.43
2017-11-06T09:31:37.005Z,11.83
2017-11-06T09:34:05.214Z,9.37
2017-11-06T09:36:32.630Z,15.93
2017-11-06T09:39:00.813Z,10.50
2017-11-06T09:41:28.460Z,10.20
2017-11-06T09:43:57.156Z,9.60
2017-11-06T09:46:25.337Z,7.10
2017-11-06T09:48:52.744Z,8.70
2017-11-06T09:51:20.158Z,9.37
2017-11-06T09:53:47.570Z,8.13
2017-11-06T09:56:14.990Z,8.70
2017-11-06T09:58:42.406Z,11.23
2017-11-06T10:01:10.590Z,6.23
2017-11-06T10:03:38.072Z,8.40
2017-11-06T10:06:05.482Z,7.47
2017-11-06T10:08:32.904Z,7.53
2017-11-06T10:11:00.306Z,7.17
2017-11-06T10:13:28.497Z,8.73
2017-11-06T10:15:55.914Z,10.10
2017-11-06T10:18:23.326Z,6.93
2017-11-06T10:20:50.757Z,5.40
2017-11-06T10:23:18.176Z,7.67
2017-11-06T10:25:47.374Z,7.70
2017-11-06T10:28:14.791Z,6.13
2017-11-06T10:30:42.201Z,6.70
2017-11-06T10:33:10.391Z,7.17
2017-11-06T10:35:38.571Z,7.57
2017-11-06T10:38:05.987Z,6.73
2017-11-06T10:40:33.394Z,6.97
2017-11-06T10:43:00.810Z,6.87
2017-11-06T10:45:28.221Z,7.03
2017-11-06T10:47:55.638Z,9.83
2017-11-06T10:50:23.818Z,9.40
2017-11-06T10:52:52.010Z,10.93
2017-11-06T10:55:19.421Z,9.67
2017-11-06T10:57:46.834Z,7.67
2017-11-06T11:00:14.242Z,6.20
2017-11-06T11:02:42.442Z,6.00
2017-11-06T11:05:09.851Z,7.17
2017-11-06T11:07:37.262Z,5.03
2017-11-06T11:10:04.677Z,7.00
2017-11-06T11:12:32.362Z,4.17
2017-11-06T11:14:59.767Z,5.23
2017-11-06T11:17:27.178Z,4.33
2017-11-06T11:19:55.363Z,5.03
2017-11-06T11:22:22.773Z,6.37
2017-11-06T11:24:50.197Z,7.30
2017-11-06T11:27:17.606Z,7.50
2017-11-06T11:29:45.782Z,3.93
2017-11-06T11:32:13.949Z,6.60
2017-11-06T11:34:42.129Z,4.73
2017-11-06T11:37:10.316Z,4.30
2017-11-06T11:39:38.502Z,6.90
2017-11-06T11:42:05.909Z,4.50
2017-11-06T11:44:33.338Z,7.40
2017-11-06T11:47:00.748Z,5.43
2017-11-06T11:49:28.929Z,5.00
2017-11-06T11:51:56.348Z,5.10
2017-11-06T11:54:23.766Z,6.43
2017-11-06T11:56:51.178Z,5.33
2017-11-06T11:59:18.583Z,3.77
2017-11-06T12:01:45.999Z,4.40
2017-11-06T12:04:14.174Z,5.70
2017-11-06T12:06:42.365Z,5.20
2017-11-06T12:09:10.526Z,4.53
2017-11-06T12:11:38.719Z,3.87
2017-11-06T12:14:06.119Z,5.60
2017-11-06T12:16:33.541Z,5.23
2017-11-06T12:19:00.950Z,4.40
2017-11-06T12:21:28.370Z,5.30
2017-11-06T12:23:56.544Z,3.83
2017-11-06T12:26:23.966Z,5.53
2017-11-06T12:28:51.370Z,4.17
2017-11-06T12:31:18.809Z,4.27
2017-11-06T12:33:46.217Z,5.60
2017-11-06T12:36:14.399Z,5.23
2017-11-06T12:38:42.586Z,4.17
2017-11-06T12:41:09.998Z,3.30
2017-11-06T12:43:37.427Z,5.33
2017-11-06T12:46:04.825Z,3.13
2017-11-06T12:48:33.010Z,3.00
2017-11-06T12:51:01.192Z,3.70
2017-11-06T12:53:29.373Z,3.83
2017-11-06T12:55:56.777Z,4.30
2017-11-06T12:58:24.200Z,4.00
2017-11-06T13:00:51.611Z,3.60
2017-11-06T13:03:20.187Z,3.53
2017-11-06T13:05:47.599Z,4.80
2017-11-06T13:08:15.020Z,3.83
2017-11-06T13:10:43.199Z,4.03
2017-11-06T13:13:12.531Z,4.33
2017-11-06T13:15:39.938Z,3.87
2017-11-06T13:18:07.361Z,5.77
2017-11-06T13:20:34.774Z,4.27
2017-11-06T13:23:02.201Z,4.27
2017-11-06T13:25:29.610Z,5.37
2017-11-06T13:27:57.018Z,3.30
2017-11-06T13:30:25.202Z,6.97
2017-11-06T13:32:53.377Z,3.67
2017-11-06T13:35:21.551Z,3.50
2017-11-06T13:37:49.727Z,3.63
2017-11-06T13:40:17.927Z,8.60
2017-11-06T13:42:45.326Z,3.10
2017-11-06T13:45:12.750Z,3.53
2017-11-06T13:47:40.161Z,4.37
2017-11-06T13:50:08.344Z,3.33
2017-11-06T13:52:36.521Z,3.10
2017-11-06T13:55:04.701Z,2.30
2017-11-06T13:57:32.104Z,2.70
2017-11-06T13:59:59.515Z,2.50
2017-11-06T14:02:26.921Z,4.37
2017-11-06T14:04:54.338Z,2.73
2017-11-06T14:07:21.747Z,2.67
2017-11-06T14:09:49.162Z,3.90
2017-11-06T14:12:16.562Z,4.47
2017-11-06T14:14:43.977Z,4.97
2017-11-06T14:17:11.389Z,3.50
2017-11-06T14:19:40.495Z,3.63
2017-11-06T14:22:08.678Z,3.90
2017-11-06T14:24:36.086Z,5.77
2017-11-06T14:27:03.506Z,4.60
2017-11-06T14:29:30.911Z,4.73
2017-11-06T14:31:58.322Z,3.13
2017-11-06T14:34:25.737Z,3.77
2017-11-06T14:36:53.914Z,5.67
2017-11-06T14:39:22.085Z,6.57
2017-11-06T14:41:50.266Z,4.37
2017-11-06T14:44:18.438Z,5.03
2017-11-06T14:46:46.622Z,3.63
2017-11-06T14:49:14.032Z,5.33
2017-11-06T14:51:41.439Z,4.53
2017-11-06T14:54:09.216Z,3.27
2017-11-06T14:56:36.594Z,4.60
2017-11-06T14:59:04.022Z,3.57
2017-11-06T15:01:32.322Z,2.23
2017-11-06T15:03:59.733Z,2.73
2017-11-06T15:06:27.145Z,3.40
2017-11-06T15:08:54.558Z,4.70
2017-11-06T15:11:21.957Z,4.53
2017-11-06T15:13:49.366Z,4.10
2017-11-06T15:16:16.765Z,3.27
2017-11-06T15:18:44.187Z,4.90
2017-11-06T15:21:12.523Z,3.77
2017-11-06T15:23:39.934Z,3.30
2017-11-06T15:26:07.346Z,3.43
2017-11-06T15:28:35.546Z,3.30
2017-11-06T15:31:02.953Z,2.70
2017-11-06T15:33:30.359Z,3.00
2017-11-06T15:35:57.774Z,3.10
2017-11-06T15:38:25.178Z,4.13
2017-11-06T15:40:52.592Z,3.50
2017-11-06T15:43:20.757Z,3.93
2017-11-06T15:45:48.175Z,3.50
2017-11-06T15:48:15.604Z,7.90
2017-11-06T15:50:42.994Z,5.13
2017-11-06T15:53:10.405Z,4.67
2017-11-06T15:55:38.578Z,3.60
2017-11-06T15:58:06.754Z,4.90
2017-11-06T16:00:34.929Z,4.30
2017-11-06T16:03:03.104Z,3.00
2017-11-06T16:05:31.278Z,4.00
2017-11-06T16:07:59.450Z,4.53
2017-11-06T16:10:27.626Z,5.23
2017-11-06T16:12:55.047Z,4.30
2017-11-06T16:15:22.463Z,5.50
2017-11-06T16:17:49.865Z,6.30
2017-11-06T16:20:17.279Z,7.53
2017-11-06T16:22:44.686Z,4.20
2017-11-06T16:25:12.866Z,4.37
2017-11-06T16:27:41.037Z,6.80
2017-11-06T16:30:09.211Z,4.50
2017-11-06T16:32:37.385Z,6.23
2017-11-06T16:35:05.562Z,4.73
2017-11-06T16:37:34.626Z,4.40
2017-11-06T16:40:02.031Z,4.80
2017-11-06T16:42:29.444Z,4.47
2017-11-06T16:44:56.845Z,3.63
2017-11-06T16:47:24.250Z,5.17
2017-11-06T16:49:51.654Z,4.67
2017-11-06T16:52:19.078Z,4.20
2017-11-06T16:54:46.489Z,4.13
2017-11-06T16:57:13.888Z,4.90
2017-11-06T16:59:41.299Z,9.57
2017-11-06T17:02:08.706Z,4.90
2017-11-06T17:04:36.113Z,4.57
2017-11-06T17:07:03.533Z,4.50
2017-11-06T17:09:31.705Z,8.43
2017-11-06T17:11:59.886Z,5.23
2017-11-06T17:14:28.071Z,7.77
2017-11-06T17:16:56.753Z,5.20
2017-11-06T17:19:24.930Z,5.43
2017-11-06T17:21:52.338Z,5.97
2017-11-06T17:24:19.755Z,9.17
2017-11-06T17:26:47.164Z,6.83
2017-11-06T17:29:14.588Z,9.07
2017-11-06T17:31:41.979Z,8.83
2017-11-06T17:34:10.158Z,15.10
2017-11-06T17:36:38.336Z,9.80
2017-11-06T17:39:06.518Z,10.00
2017-11-06T17:41:34.701Z,11.07
2017-11-06T17:44:02.106Z,6.63
2017-11-06T17:46:29.527Z,7.60
2017-11-06T17:48:56.937Z,7.90
2017-11-06T17:51:24.350Z,9.87
2017-11-06T17:53:51.766Z,8.40
2017-11-06T17:56:19.933Z,10.97
2017-11-06T17:58:48.130Z,8.13
2017-11-06T18:01:15.538Z,10.40
2017-11-06T18:03:42.956Z,11.03
2017-11-06T18:06:10.369Z,7.87
2017-11-06T18:08:37.765Z,9.53
2017-11-06T18:11:05.279Z,6.93
2017-11-06T18:13:32.688Z,9.33
2017-11-06T18:16:00.964Z,8.37
2017-11-06T18:18:28.379Z,13.30
2017-11-06T18:20:56.558Z,10.47
2017-11-06T18:23:24.738Z,12.07
2017-11-06T18:25:52.921Z,17.10
2017-11-06T18:28:20.342Z,14.67
2017-11-06T18:30:47.758Z,16.70
2017-11-06T18:33:15.170Z,15.33
2017-11-06T18:35:44.243Z,14.57
2017-11-06T18:38:11.655Z,12.10
2017-11-06T18:40:39.070Z,16.67
2017-11-06T18:43:07.246Z,13.60
2017-11-06T18:45:35.452Z,17.97
2017-11-06T18:48:02.868Z,16.80
2017-11-06T18:50:30.279Z,14.53
2017-11-06T18:52:57.694Z,16.63
2017-11-06T18:55:25.870Z,19.17
2017-11-06T18:57:54.059Z,10.80
2017-11-06T19:00:21.462Z,9.80
2017-11-06T19:02:48.871Z,9.63
2017-11-06T19:05:16.282Z,8.50
2017-11-06T19:07:43.688Z,9.80
2017-11-06T19:10:12.007Z,9.43
2017-11-06T19:12:39.706Z,13.00
2017-11-06T19:15:07.883Z,12.90
2017-11-06T19:17:36.087Z,15.60
2017-11-06T19:20:04.649Z,21.23
2017-11-06T19:22:32.821Z,15.67
2017-11-06T19:25:00.234Z,19.77
2017-11-06T19:27:27.645Z,20.63
2017-11-06T19:29:55.077Z,20.13
2017-11-06T19:32:23.259Z,20.03
2017-11-06T19:34:51.434Z,18.00
2017-11-06T19:37:19.615Z,19.90
2017-11-06T19:39:47.034Z,16.03
2017-11-06T19:42:14.444Z,17.77
2017-11-06T19:44:41.866Z,18.07
2017-11-06T19:47:10.050Z,19.60
2017-11-06T19:49:37.470Z,17.13
2017-11-06T19:52:04.887Z,16.07
2017-11-06T19:54:32.303Z,16.73
2017-11-06T19:57:00.490Z,17.20
2017-11-06T19:59:28.685Z,14.97
2017-11-06T20:01:56.082Z,17.07
2017-11-06T20:04:23.502Z,11.33
2017-11-06T20:06:50.907Z,9.90
2017-11-06T20:09:18.318Z,11.23
2017-11-06T20:11:46.153Z,8.20
2017-11-06T20:14:14.326Z,9.23
2017-11-06T20:16:42.511Z,13.40
2017-11-06T20:19:09.926Z,14.67
2017-11-06T20:21:37.346Z,30.33
2017-11-06T20:24:04.765Z,19.90
2017-11-06T20:26:32.941Z,23.50
2017-11-06T20:29:01.117Z,21.30
2017-11-06T20:31:28.550Z,22.80
2017-11-06T20:33:55.971Z,27.20
2017-11-06T20:36:23.391Z,30.43
2017-11-06T20:38:50.810Z,22.13
2017-11-06T20:41:18.236Z,29.03
2017-11-06T20:43:45.658Z,22.70
2017-11-06T20:46:13.830Z,22.37
2017-11-06T20:48:41.246Z,18.40
2017-11-06T20:51:08.662Z,19.90
2017-11-06T20:53:36.082Z,21.00
2017-11-06T20:56:04.262Z,20.60
2017-11-06T20:58:32.446Z,20.43
2017-11-06T21:00:59.868Z,20.40
2017-11-06T21:03:27.286Z,20.70
2017-11-06T21:05:54.694Z,20.93
2017-11-06T21:08:22.130Z,18.97
2017-11-06T21:10:49.554Z,17.43
2017-11-06T21:13:16.958Z,16.90
2017-11-06T21:15:44.377Z,20.70
2017-11-06T21:18:12.558Z,13.23
2017-11-06T21:20:39.978Z,13.17
2017-11-06T21:23:07.393Z,13.70
2017-11-06T21:25:34.809Z,11.93
2017-11-06T21:28:03.649Z,17.00
2017-11-06T21:30:36.801Z,18.00
2017-11-06T21:33:04.214Z,17.87
2017-11-06T21:35:32.392Z,24.07
2017-11-06T21:37:59.871Z,20.93
2017-11-06T21:40:27.282Z,18.60
2017-11-06T21:42:54.784Z,22.93
2017-11-06T21:45:22.201Z,21.73
2017-11-06T21:47:50.392Z,17.50
2017-11-06T21:50:18.687Z,22.23
2017-11-06T21:52:46.102Z,16.33
2017-11-06T21:55:13.511Z,21.40
2017-11-06T21:57:40.926Z,20.53
2017-11-06T22:00:09.100Z,13.10
2017-11-06T22:02:37.277Z,16.10
2017-11-06T22:05:05.457Z,12.27
2017-11-06T22:07:32.877Z,14.73
2017-11-06T22:10:00.390Z,16.60
2017-11-06T22:12:27.817Z,16.90
2017-11-06T22:14:55.999Z,12.30
2017-11-06T22:17:24.198Z,11.73
2017-11-06T22:19:51.606Z,14.23
2017-11-06T22:22:19.017Z,14.93
2017-11-06T22:24:46.424Z,11.87
2017-11-06T22:27:14.625Z,12.97
2017-11-06T22:29:42.027Z,13.17
2017-11-06T22:32:09.549Z,11.17
2017-11-06T22:34:36.965Z,14.20
2017-11-06T22:37:04.374Z,12.97
2017-11-06T22:39:32.629Z,13.13
2017-11-06T22:42:00.051Z,12.07
2017-11-06T22:44:27.467Z,14.53
2017-11-06T22:46:54.884Z,11.60
2017-11-06T22:49:23.063Z,11.13
2017-11-06T22:51:50.474Z,14.07
2017-11-06T22:54:17.890Z,10.23
2017-11-06T22:56:45.301Z,11.73
2017-11-06T22:59:13.487Z,14.40
2017-11-06T23:01:41.650Z,11.83
2017-11-06T23:04:09.058Z,9.60
2017-11-06T23:06:36.479Z,15.53
2017-11-06T23:09:05.287Z,10.70
2017-11-06T23:11:33.478Z,10.70
2017-11-06T23:14:00.882Z,15.57
2017-11-06T23:16:28.294Z,12.03
2017-11-06T23:18:55.706Z,10.27
2017-11-06T23:21:23.886Z,9.97
2017-11-06T23:23:52.062Z,12.70
2017-11-06T23:26:20.237Z,16.37
2017-11-06T23:28:47.650Z,10.50
2017-11-06T23:31:15.075Z,12.20
2017-11-06T23:33:42.478Z,13.80
2017-11-06T23:36:09.901Z,17.03
2017-11-06T23:38:37.320Z,13.40
2017-11-06T23:41:05.506Z,12.33
2017-11-06T23:43:32.918Z,17.87
2017-11-06T23:46:01.095Z,12.20
2017-11-06T23:48:28.509Z,15.87
2017-11-06T23:50:55.919Z,16.17
2017-11-06T23:53:24.097Z,15.37
2017-11-06T23:55:52.279Z,17.03
2017-11-06T23:58:20.990Z,18.70
